createdAt,value
2023-04-06T00:01:39.968Z,4.50
2023-04-06T00:04:17.677Z,4.10
2023-04-06T00:06:49.580Z,3.90
2023-04-06T00:09:18.238Z,3.70
2023-04-06T00:11:47.828Z,4.43
2023-04-06T00:14:19.388Z,4.30
2023-04-06T00:16:47.741Z,4.53
2023-04-06T00:19:16.341Z,4.23
2023-04-06T00:21:44.919Z,4.57
2023-04-06T00:24:16.614Z,4.40
2023-04-06T00:26:46.710Z,4.00
2023-04-06T00:29:19.349Z,4.07
2023-04-06T00:31:48.552Z,4.57
2023-04-06T00:34:19.626Z,4.47
2023-04-06T00:36:48.735Z,4.33
2023-04-06T00:39:17.428Z,4.63
2023-04-06T00:41:52.154Z,3.93
2023-04-06T00:44:27.691Z,5.10
2023-04-06T00:46:56.709Z,5.30
2023-04-06T00:49:27.258Z,5.10
2023-04-06T00:51:55.730Z,4.60
2023-04-06T00:54:25.129Z,4.43
2023-04-06T00:56:52.769Z,4.10
2023-04-06T00:59:22.935Z,4.90
2023-04-06T01:01:53.785Z,4.70
2023-04-06T01:04:21.714Z,4.77
2023-04-06T01:06:53.849Z,4.37
2023-04-06T01:09:24.084Z,4.03
2023-04-06T01:11:52.608Z,4.73
2023-04-06T01:14:35.775Z,4.67
2023-04-06T01:17:06.619Z,5.07
2023-04-06T01:19:37.685Z,5.80
2023-04-06T01:22:14.405Z,5.40
2023-04-06T01:24:50.523Z,5.77
2023-04-06T01:27:20.590Z,5.20
2023-04-06T01:29:48.925Z,5.77
2023-04-06T01:32:16.815Z,6.07
2023-04-06T01:34:47.295Z,6.60
2023-04-06T01:37:17.000Z,6.30
2023-04-06T01:39:47.784Z,6.13
2023-04-06T01:42:17.505Z,5.90
2023-04-06T01:44:47.059Z,5.97
2023-04-06T01:47:24.067Z,6.23
2023-04-06T01:49:53.756Z,6.27
2023-04-06T01:52:28.987Z,6.90
2023-04-06T01:54:56.591Z,6.30
2023-04-06T01:57:24.881Z,7.90
2023-04-06T01:59:54.204Z,6.57
2023-04-06T02:02:24.495Z,6.47
2023-04-06T02:05:05.440Z,6.47
2023-04-06T02:07:34.819Z,6.20
2023-04-06T02:10:04.325Z,6.07
2023-04-06T02:12:32.821Z,6.67
2023-04-06T02:15:01.598Z,7.07
2023-04-06T02:17:31.033Z,6.57
2023-04-06T02:20:06.343Z,7.70
2023-04-06T02:22:38.766Z,6.70
2023-04-06T02:25:07.305Z,7.17
2023-04-06T02:27:40.687Z,6.53
2023-04-06T02:30:13.168Z,6.70
2023-04-06T02:32:40.445Z,7.57
2023-04-06T02:35:11.011Z,7.07
2023-04-06T02:37:42.018Z,6.30
2023-04-06T02:40:09.828Z,7.13
2023-04-06T02:42:45.971Z,6.77
2023-04-06T02:45:31.999Z,7.27
2023-04-06T02:48:02.135Z,6.63
2023-04-06T02:50:33.623Z,7.00
2023-04-06T02:53:01.284Z,7.13
2023-04-06T02:55:30.469Z,7.47
2023-04-06T02:57:58.667Z,7.00
2023-04-06T03:00:28.723Z,6.63
2023-04-06T03:02:59.549Z,6.43
2023-04-06T03:05:35.742Z,6.07
2023-04-06T03:08:02.725Z,7.07
2023-04-06T03:10:31.516Z,6.33
2023-04-06T03:13:06.098Z,6.73
2023-04-06T03:15:38.218Z,6.57
2023-04-06T03:18:07.375Z,6.83
2023-04-06T03:20:36.468Z,6.97
2023-04-06T03:23:06.038Z,6.53
2023-04-06T03:25:45.475Z,7.10
2023-04-06T03:28:13.625Z,6.43
2023-04-06T03:30:41.823Z,6.53
2023-04-06T03:33:12.182Z,6.23
2023-04-06T03:35:40.064Z,6.43
2023-04-06T03:38:08.103Z,7.73
2023-04-06T03:40:35.517Z,6.70
2023-04-06T03:43:02.855Z,6.50
2023-04-06T03:45:33.941Z,7.20
2023-04-06T03:48:01.097Z,7.60
2023-04-06T03:50:31.467Z,7.30
2023-04-06T03:52:59.641Z,7.80
2023-04-06T03:55:31.141Z,7.43
2023-04-06T03:57:58.794Z,6.90
2023-04-06T04:00:37.432Z,6.97
2023-04-06T04:03:08.618Z,6.63
2023-04-06T04:05:46.198Z,7.17
2023-04-06T04:08:14.891Z,5.40
2023-04-06T04:10:44.739Z,6.20
2023-04-06T04:13:13.240Z,5.53
2023-04-06T04:15:42.753Z,6.20
2023-04-06T04:18:10.190Z,5.33
2023-04-06T04:20:39.278Z,5.70
2023-04-06T04:23:07.748Z,5.50
2023-04-06T04:25:36.997Z,5.37
2023-04-06T04:28:07.433Z,5.13
2023-04-06T04:30:48.388Z,4.70
2023-04-06T04:33:25.049Z,5.07
2023-04-06T04:36:00.731Z,5.00
2023-04-06T04:38:30.782Z,4.70
2023-04-06T04:41:00.007Z,5.53
2023-04-06T04:43:32.885Z,5.07
2023-04-06T04:46:05.520Z,4.47
2023-04-06T04:48:36.507Z,4.77
2023-04-06T04:51:07.912Z,4.77
2023-04-06T04:53:43.803Z,5.43
2023-04-06T04:56:16.811Z,4.50
2023-04-06T04:58:45.474Z,4.47
2023-04-06T05:01:14.303Z,4.50
2023-04-06T05:03:47.933Z,4.60
2023-04-06T05:06:19.832Z,3.13
2023-04-06T05:08:51.234Z,3.90
2023-04-06T05:11:23.570Z,3.70
2023-04-06T05:13:54.049Z,4.07
2023-04-06T05:16:22.607Z,4.07
2023-04-06T05:18:52.632Z,4.80
2023-04-06T05:21:21.746Z,4.80
2023-04-06T05:23:51.569Z,4.50
2023-04-06T05:26:20.818Z,4.37
2023-04-06T05:28:49.366Z,4.13
2023-04-06T05:31:20.639Z,4.30
2023-04-06T05:33:50.089Z,3.97
2023-04-06T05:36:20.102Z,3.70
2023-04-06T05:38:49.748Z,3.67
2023-04-06T05:41:17.115Z,3.90
2023-04-06T05:43:50.880Z,4.20
2023-04-06T05:46:18.512Z,4.50
2023-04-06T05:48:47.194Z,4.40
2023-04-06T05:51:16.628Z,3.93
2023-04-06T05:53:54.660Z,4.50
2023-04-06T05:56:21.980Z,4.37
2023-04-06T05:58:50.459Z,4.30
2023-04-06T06:01:29.453Z,5.00
2023-04-06T06:04:02.702Z,4.30
2023-04-06T06:06:32.311Z,4.00
2023-04-06T06:09:06.004Z,4.40
2023-04-06T06:11:35.423Z,4.25
2023-04-06T06:14:04.294Z,4.38
2023-04-06T06:16:49.041Z,4.38
2023-04-06T06:19:18.372Z,4.13
2023-04-06T06:21:54.593Z,4.05
2023-04-06T06:24:36.724Z,4.38
2023-04-06T06:27:06.719Z,5.40
2023-04-06T06:29:35.124Z,5.35
2023-04-06T06:32:05.108Z,5.18
2023-04-06T06:34:37.284Z,5.57
2023-04-06T06:37:06.181Z,5.07
2023-04-06T06:39:37.267Z,4.95
2023-04-06T06:42:06.309Z,5.10
2023-04-06T06:44:48.072Z,4.82
2023-04-06T06:47:19.362Z,4.40
2023-04-06T06:49:50.912Z,4.00
2023-04-06T06:52:20.285Z,4.15
2023-04-06T06:54:48.810Z,4.45
2023-04-06T06:57:18.052Z,4.28
2023-04-06T06:59:48.950Z,4.55
2023-04-06T07:02:19.158Z,4.80
2023-04-06T07:04:51.244Z,4.35
2023-04-06T07:07:19.681Z,4.75
2023-04-06T07:09:47.765Z,3.92
2023-04-06T07:12:18.312Z,4.05
2023-04-06T07:14:47.128Z,4.10
2023-04-06T07:17:24.930Z,4.53
2023-04-06T07:19:53.741Z,4.68
2023-04-06T07:22:21.236Z,5.03
2023-04-06T07:24:49.892Z,5.53
2023-04-06T07:27:20.979Z,5.95
2023-04-06T07:29:49.481Z,6.10
2023-04-06T07:32:17.950Z,5.25
2023-04-06T07:34:51.500Z,5.63
2023-04-06T07:37:21.904Z,5.00
2023-04-06T07:39:52.389Z,5.25
2023-04-06T07:42:32.122Z,5.45
2023-04-06T07:45:02.235Z,5.20
2023-04-06T07:47:33.028Z,5.00
2023-04-06T07:50:02.606Z,4.28
2023-04-06T07:52:38.375Z,4.95
2023-04-06T07:55:07.658Z,5.32
2023-04-06T07:57:36.978Z,5.22
2023-04-06T08:00:06.311Z,5.35
2023-04-06T08:02:33.883Z,5.50
2023-04-06T08:05:02.356Z,5.13
2023-04-06T08:07:31.768Z,5.10
2023-04-06T08:10:01.358Z,4.88
2023-04-06T08:12:34.474Z,5.10
2023-04-06T08:15:06.876Z,5.00
2023-04-06T08:17:35.372Z,5.68
2023-04-06T08:20:05.961Z,5.60
2023-04-06T08:22:35.627Z,5.90
2023-04-06T08:25:06.888Z,5.55
2023-04-06T08:27:35.126Z,5.35
2023-04-06T08:30:05.854Z,5.40
2023-04-06T08:32:36.793Z,5.63
2023-04-06T08:35:07.007Z,5.60
2023-04-06T08:37:35.921Z,4.97
2023-04-06T08:40:07.577Z,5.43
2023-04-06T08:42:38.720Z,5.40
2023-04-06T08:45:10.088Z,4.68
2023-04-06T08:47:43.544Z,4.70
2023-04-06T08:50:14.241Z,4.55
2023-04-06T08:52:47.229Z,4.57
2023-04-06T08:55:21.022Z,4.57
2023-04-06T08:57:50.062Z,3.77
2023-04-06T09:00:19.585Z,3.33
2023-04-06T09:02:51.538Z,3.00
2023-04-06T09:05:23.084Z,3.07
2023-04-06T09:07:52.799Z,3.10
2023-04-06T09:10:24.830Z,3.27
2023-04-06T09:12:52.175Z,3.50
2023-04-06T09:15:24.329Z,3.27
2023-04-06T09:17:55.342Z,3.13
2023-04-06T09:20:39.933Z,3.50
2023-04-06T09:23:19.094Z,3.13
2023-04-06T09:25:48.443Z,3.20
2023-04-06T09:28:18.715Z,3.13
2023-04-06T09:30:56.204Z,3.00
2023-04-06T09:33:32.911Z,3.10
2023-04-06T09:36:02.503Z,3.43
2023-04-06T09:38:32.090Z,2.90
2023-04-06T09:41:01.968Z,3.20
2023-04-06T09:43:32.033Z,3.10
2023-04-06T09:46:04.657Z,3.07
2023-04-06T09:48:55.177Z,3.00
2023-04-06T09:51:29.409Z,2.90
2023-04-06T09:54:02.695Z,3.20
2023-04-06T09:56:35.159Z,3.10
2023-04-06T09:59:23.865Z,3.30
2023-04-06T10:01:54.975Z,3.50
2023-04-06T10:04:55.853Z,3.10
2023-04-06T10:07:25.238Z,3.20
2023-04-06T10:10:06.122Z,3.00
2023-04-06T10:12:38.584Z,2.63
2023-04-06T10:15:08.429Z,2.80
2023-04-06T10:17:39.487Z,2.97
2023-04-06T10:20:38.349Z,2.53
2023-04-06T10:23:40.200Z,2.93
2023-04-06T10:26:14.854Z,2.63
2023-04-06T10:28:45.426Z,3.00
2023-04-06T10:31:15.046Z,2.77
2023-04-06T10:33:54.409Z,2.60
2023-04-06T10:36:36.170Z,2.70
2023-04-06T10:39:15.999Z,2.53
2023-04-06T10:41:51.936Z,2.70
2023-04-06T10:44:27.803Z,3.00
2023-04-06T10:47:08.662Z,2.80
2023-04-06T10:49:37.540Z,2.07
2023-04-06T10:52:12.337Z,2.70
2023-04-06T10:54:47.400Z,2.90
2023-04-06T10:57:24.333Z,2.50
2023-04-06T10:59:56.692Z,2.43
2023-04-06T11:02:25.552Z,2.73
2023-04-06T11:05:03.722Z,2.50
2023-04-06T11:07:32.299Z,2.23
2023-04-06T11:10:13.520Z,2.30
2023-04-06T11:12:46.963Z,2.20
2023-04-06T11:15:17.506Z,2.13
2023-04-06T11:17:49.886Z,2.60
2023-04-06T11:20:21.590Z,2.50
2023-04-06T11:22:56.126Z,2.87
2023-04-06T11:25:23.286Z,2.53
2023-04-06T11:27:54.606Z,2.40
2023-04-06T11:30:23.879Z,2.50
2023-04-06T11:32:54.646Z,2.70
2023-04-06T11:35:27.780Z,2.27
2023-04-06T11:37:56.895Z,2.50
2023-04-06T11:40:25.974Z,2.20
2023-04-06T11:42:59.081Z,2.30
2023-04-06T11:45:27.820Z,2.03
2023-04-06T11:48:02.314Z,2.43
2023-04-06T11:50:37.373Z,1.93
2023-04-06T11:53:07.432Z,1.83
2023-04-06T11:55:40.702Z,2.23
2023-04-06T11:58:16.754Z,2.20
2023-04-06T12:00:48.227Z,2.30
2023-04-06T12:03:15.716Z,2.03
2023-04-06T12:05:44.806Z,1.70
2023-04-06T12:08:12.944Z,2.17
2023-04-06T12:10:46.146Z,2.20
2023-04-06T12:13:15.195Z,2.00
2023-04-06T12:15:43.500Z,1.60
2023-04-06T12:18:12.516Z,2.00
2023-04-06T12:20:42.281Z,2.17
2023-04-06T12:23:13.319Z,1.90
2023-04-06T12:25:44.667Z,2.00
2023-04-06T12:28:12.514Z,2.33
2023-04-06T12:30:42.764Z,2.30
2023-04-06T12:40:40.040Z,1.73
2023-04-06T12:43:09.390Z,2.47
2023-04-06T12:45:37.824Z,1.80
2023-04-06T12:48:14.080Z,1.90
2023-04-06T12:50:44.703Z,1.77
2023-04-06T12:53:16.070Z,2.33
2023-04-06T12:55:44.797Z,2.17
2023-04-06T12:58:21.399Z,2.27
2023-04-06T13:00:53.551Z,2.17
2023-04-06T13:03:23.394Z,2.20
2023-04-06T13:05:55.009Z,2.00
2023-04-06T13:08:22.728Z,2.00
2023-04-06T13:10:57.106Z,1.63
2023-04-06T13:13:27.844Z,2.00
2023-04-06T13:16:10.616Z,1.80
2023-04-06T13:18:47.421Z,1.80
2023-04-06T13:21:19.183Z,2.10
2023-04-06T13:24:00.633Z,1.70
2023-04-06T13:26:30.825Z,1.90
2023-04-06T13:28:58.490Z,2.00
2023-04-06T13:31:25.609Z,1.93
2023-04-06T13:33:54.403Z,1.90
2023-04-06T13:36:24.468Z,1.80
2023-04-06T13:39:03.130Z,2.07
2023-04-06T13:41:30.740Z,1.80
2023-04-06T13:43:59.482Z,2.00
2023-04-06T13:46:29.466Z,2.33
2023-04-06T13:48:57.887Z,2.83
2023-04-06T13:51:30.844Z,1.90
2023-04-06T13:54:00.782Z,1.87
2023-04-06T13:56:28.157Z,2.10
2023-04-06T13:59:02.830Z,1.60
2023-04-06T14:01:31.586Z,2.07
2023-04-06T14:04:00.520Z,1.90
2023-04-06T14:06:37.563Z,2.03
2023-04-06T14:09:07.618Z,1.57
2023-04-06T14:11:44.788Z,1.90
2023-04-06T14:14:14.372Z,1.73
2023-04-06T14:16:45.448Z,1.90
2023-04-06T14:19:13.568Z,1.70
2023-04-06T14:21:43.095Z,1.80
2023-04-06T14:24:12.590Z,2.13
2023-04-06T14:26:43.010Z,1.80
2023-04-06T14:29:13.562Z,1.60
2023-04-06T14:31:43.982Z,1.50
2023-04-06T14:34:12.825Z,1.60
2023-04-06T14:36:42.035Z,1.57
2023-04-06T14:39:25.848Z,1.57
2023-04-06T14:41:54.230Z,1.80
2023-04-06T14:44:30.738Z,1.60
2023-04-06T14:47:00.412Z,2.00
2023-04-06T14:49:36.975Z,1.60
2023-04-06T14:52:06.513Z,1.80
2023-04-06T14:54:35.409Z,1.73
2023-04-06T14:57:03.793Z,2.07
2023-04-06T14:59:36.078Z,1.50
2023-04-06T15:02:06.436Z,1.50
2023-04-06T15:04:42.112Z,1.90
2023-04-06T15:07:12.068Z,1.73
2023-04-06T15:09:40.668Z,1.87
2023-04-06T15:12:11.223Z,1.70
2023-04-06T15:14:41.642Z,1.67
2023-04-06T15:17:10.181Z,1.87
2023-04-06T15:19:44.295Z,1.70
2023-04-06T15:22:14.320Z,1.60
2023-04-06T15:24:42.551Z,1.60
2023-04-06T15:27:10.166Z,1.60
2023-04-06T15:29:38.615Z,1.70
2023-04-06T15:32:11.417Z,1.93
2023-04-06T15:34:39.936Z,1.50
2023-04-06T15:37:12.470Z,1.70
2023-04-06T15:39:47.666Z,1.80
2023-04-06T15:42:18.271Z,1.83
2023-04-06T15:44:49.285Z,1.73
2023-04-06T15:47:16.745Z,1.70
2023-04-06T15:49:45.445Z,1.63
2023-04-06T15:52:14.989Z,1.80
2023-04-06T15:54:44.816Z,1.87
2023-04-06T15:57:12.242Z,1.70
2023-04-06T15:59:40.547Z,1.77
2023-04-06T16:02:07.907Z,1.73
2023-04-06T16:04:37.374Z,1.73
2023-04-06T16:07:11.958Z,1.73
2023-04-06T16:09:45.972Z,1.70
2023-04-06T16:12:14.328Z,1.77
2023-04-06T16:14:42.747Z,1.90
2023-04-06T16:17:20.838Z,1.90
2023-04-06T16:19:50.263Z,1.80
2023-04-06T16:22:19.057Z,1.90
2023-04-06T16:24:57.738Z,1.93
2023-04-06T16:27:28.382Z,1.70
2023-04-06T16:29:59.030Z,1.83
2023-04-06T16:32:26.634Z,1.60
2023-04-06T16:34:56.101Z,1.70
2023-04-06T16:37:24.512Z,1.77
2023-04-06T16:39:53.420Z,1.83
2023-04-06T16:42:22.424Z,1.80
2023-04-06T16:44:52.772Z,2.00
2023-04-06T16:47:21.310Z,2.00
2023-04-06T16:49:48.517Z,1.60
2023-04-06T16:52:17.222Z,1.90
2023-04-06T16:54:46.511Z,1.73
2023-04-06T16:57:24.240Z,2.03
2023-04-06T16:59:54.815Z,2.00
2023-04-06T17:02:25.176Z,2.03
2023-04-06T17:04:55.143Z,2.00
2023-04-06T17:07:31.546Z,2.27
2023-04-06T17:10:05.045Z,2.07
2023-04-06T17:12:33.202Z,2.10
2023-04-06T17:15:12.234Z,2.13
2023-04-06T17:17:39.602Z,2.73
2023-04-06T17:20:11.307Z,2.10
2023-04-06T17:22:40.317Z,2.50
2023-04-06T17:25:07.923Z,1.90
2023-04-06T17:27:36.825Z,2.13
2023-04-06T17:30:08.018Z,1.80
2023-04-06T17:32:40.132Z,1.93
2023-04-06T17:35:11.910Z,2.43
2023-04-06T17:37:45.192Z,2.10
2023-04-06T17:40:18.059Z,2.73
2023-04-06T17:42:47.984Z,2.50
2023-04-06T17:45:17.044Z,3.40
2023-04-06T17:47:44.284Z,2.87
2023-04-06T17:52:56.450Z,2.70
2023-04-06T17:55:26.648Z,2.43
2023-04-06T17:57:56.105Z,2.40
2023-04-06T18:00:33.787Z,2.70
2023-04-06T18:03:05.805Z,2.70
2023-04-06T18:05:42.995Z,2.50
2023-04-06T18:08:14.005Z,2.63
2023-04-06T18:10:55.151Z,2.40
2023-04-06T18:13:26.151Z,2.97
2023-04-06T18:16:03.980Z,2.40
2023-04-06T18:18:31.313Z,2.90
2023-04-06T18:21:03.362Z,3.17
2023-04-06T18:23:32.806Z,2.70
2023-04-06T18:26:02.828Z,2.43
2023-04-06T18:28:40.609Z,2.40
2023-04-06T18:31:10.903Z,2.70
2023-04-06T18:33:39.422Z,2.63
2023-04-06T18:36:11.417Z,3.00
2023-04-06T18:38:48.474Z,2.77
2023-04-06T18:41:19.106Z,3.00
2023-04-06T18:43:47.464Z,2.90
2023-04-06T18:46:23.365Z,3.00
2023-04-06T18:48:53.243Z,3.27
2023-04-06T18:51:22.160Z,3.30
2023-04-06T18:53:50.882Z,2.90
2023-04-06T18:56:24.386Z,3.23
2023-04-06T18:58:51.573Z,3.10
2023-04-06T19:01:33.152Z,3.40
2023-04-06T19:04:02.475Z,2.90
2023-04-06T19:06:34.006Z,3.20
2023-04-06T19:09:07.107Z,2.80
2023-04-06T19:11:37.578Z,3.00
2023-04-06T19:14:07.767Z,3.03
2023-04-06T19:16:42.436Z,3.50
2023-04-06T19:19:10.112Z,3.07
2023-04-06T19:21:39.958Z,3.40
2023-04-06T19:24:08.410Z,3.53
2023-04-06T19:26:36.959Z,3.57
2023-04-06T19:29:05.762Z,3.70
2023-04-06T19:31:35.882Z,3.50
2023-04-06T19:34:05.883Z,3.77
2023-04-06T19:36:35.932Z,3.80
2023-04-06T19:39:04.327Z,3.63
2023-04-06T19:41:32.465Z,3.40
2023-04-06T19:44:11.252Z,3.60
2023-04-06T19:46:39.886Z,3.80
2023-04-06T19:49:08.335Z,3.90
2023-04-06T19:51:37.924Z,3.53
2023-04-06T19:54:08.835Z,3.40
2023-04-06T19:56:37.043Z,3.50
2023-04-06T19:59:06.638Z,3.90
2023-04-06T20:01:37.074Z,3.60
2023-04-06T20:04:06.409Z,3.50
2023-04-06T20:06:35.831Z,3.80
2023-04-06T20:09:05.482Z,3.60
2023-04-06T20:11:36.866Z,3.60
2023-04-06T20:14:07.546Z,3.90
2023-04-06T20:16:35.935Z,4.30
2023-04-06T20:19:06.365Z,3.60
2023-04-06T20:21:33.788Z,3.97
2023-04-06T20:24:11.104Z,3.87
2023-04-06T20:26:40.797Z,3.57
2023-04-06T20:29:07.894Z,3.83
2023-04-06T20:31:36.352Z,3.87
2023-04-06T20:34:04.686Z,3.30
2023-04-06T20:36:35.178Z,3.57
2023-04-06T20:39:02.576Z,3.70
2023-04-06T20:41:30.988Z,3.37
2023-04-06T20:44:01.289Z,3.63
2023-04-06T20:46:31.745Z,4.47
2023-04-06T20:49:01.107Z,4.00
2023-04-06T20:51:29.697Z,4.37
2023-04-06T20:54:00.706Z,4.10
2023-04-06T20:56:29.639Z,4.13
2023-04-06T20:58:59.019Z,4.43
2023-04-06T21:01:26.518Z,4.17
2023-04-06T21:03:53.786Z,4.07
2023-04-06T21:06:22.246Z,4.47
2023-04-06T21:08:51.600Z,3.83
2023-04-06T21:11:19.972Z,4.23
2023-04-06T21:13:49.115Z,4.07
2023-04-06T21:16:25.630Z,4.60
2023-04-06T21:19:03.185Z,4.30
2023-04-06T21:21:31.397Z,4.67
2023-04-06T21:24:08.039Z,4.40
2023-04-06T21:26:36.956Z,4.73
2023-04-06T21:29:05.990Z,4.83
2023-04-06T21:31:43.652Z,5.27
2023-04-06T21:34:21.316Z,5.10
2023-04-06T21:36:51.016Z,5.20
2023-04-06T21:39:27.559Z,4.70
2023-04-06T21:41:57.372Z,4.83
2023-04-06T21:44:29.021Z,4.90
2023-04-06T21:46:59.217Z,5.13
2023-04-06T21:49:32.736Z,4.87
2023-04-06T21:52:00.784Z,4.80
2023-04-06T21:54:38.011Z,5.17
2023-04-06T21:57:08.281Z,5.63
2023-04-06T21:59:38.908Z,5.30
2023-04-06T22:02:07.742Z,5.30
2023-04-06T22:04:35.435Z,5.63
2023-04-06T22:07:05.126Z,5.30
2023-04-06T22:09:33.879Z,5.30
2023-04-06T22:12:09.661Z,4.73
2023-04-06T22:14:37.186Z,5.17
2023-04-06T22:17:07.465Z,5.53
2023-04-06T22:19:38.945Z,5.53
2023-04-06T22:22:07.808Z,5.50
2023-04-06T22:24:43.965Z,5.50
2023-04-06T22:27:12.494Z,5.83
2023-04-06T22:29:47.959Z,5.70
2023-04-06T22:32:19.689Z,5.10
2023-04-06T22:34:49.294Z,4.93
2023-04-06T22:37:17.617Z,4.93
2023-04-06T22:39:46.577Z,5.80
2023-04-06T22:42:17.243Z,6.23
2023-04-06T22:44:47.489Z,5.93
2023-04-06T22:47:17.801Z,5.67
2023-04-06T22:49:53.415Z,6.07
2023-04-06T22:52:22.060Z,6.30
2023-04-06T22:54:50.965Z,6.90
2023-04-06T22:57:21.466Z,6.30
2023-04-06T22:59:56.606Z,6.40
2023-04-06T23:02:28.270Z,4.93
2023-04-06T23:04:57.811Z,5.43
2023-04-06T23:07:29.423Z,5.10
2023-04-06T23:09:58.391Z,5.23
2023-04-06T23:12:28.871Z,5.63
2023-04-06T23:14:59.223Z,5.03
2023-04-06T23:17:28.808Z,5.10
2023-04-06T23:19:57.492Z,4.83
2023-04-06T23:22:26.456Z,5.33
2023-04-06T23:24:57.599Z,4.90
2023-04-06T23:27:27.608Z,5.37
2023-04-06T23:30:19.609Z,5.33
2023-04-06T23:32:48.070Z,5.47
2023-04-06T23:35:16.648Z,5.30
2023-04-06T23:37:46.886Z,5.67
2023-04-06T23:40:21.971Z,5.30
2023-04-06T23:42:54.305Z,5.90
2023-04-06T23:45:21.565Z,6.00
2023-04-06T23:47:52.704Z,6.50
2023-04-06T23:50:21.240Z,6.20
2023-04-06T23:52:50.070Z,6.37
2023-04-06T23:55:27.162Z,6.40
2023-04-06T23:57:57.647Z,5.97
